Time;durP1;ratioP1;P1;durP2;ratioP2;P2;SDS_P1;SDS_P2;PMS_P1;PMS_P2;Temp;Humidity;BMP_temperature;BMP_pressure;BME280_temperature;BME280_humidity;BME280_pressure;Samples;Min_cycle;Max_cycle;Signal;HPM_P1;HPM_P2
2022/08/10 00:00:30;;;;;;;;;;;;;;;;;;110889;1250;33750;-34
2022/08/10 00:03:08;;;;;;;7.00;4.70;;;;;;;;;;110922;1249;34946;-35
2022/08/10 00:05:39;;;;;;;7.90;4.80;;;;;;;;;;110899;1249;33301;-36
2022/08/10 00:08:10;;;;;;;6.20;4.60;;;;;;;;;;110901;1244;34931;-35
2022/08/10 00:10:40;;;;;;;6.20;4.40;;;;;;;;;;110879;1249;35105;-35
2022/08/10 00:13:11;;;;;;;6.80;4.90;;;;;;;;;;110910;1241;33704;-35
2022/08/10 00:15:45;;;;;;;6.50;4.40;;;;;;;;;;110916;1244;33704;-36
2022/08/10 00:18:18;;;;;;;8.90;5.30;;;;;;;;;;110908;1241;33749;-35
2022/08/10 00:20:49;;;;;;;6.40;4.60;;;;;;;;;;110940;1241;34370;-34
2022/08/10 00:23:20;;;;;;;5.00;4.20;;;;;;;;;;110896;1241;33708;-34
2022/08/10 00:25:50;;;;;;;10.30;4.60;;;;;;;;;;110855;1248;33788;-38
2022/08/10 00:28:21;;;;;;;7.90;4.60;;;;;;;;;;110898;1241;33355;-35
2022/08/10 00:30:52;;;;;;;7.20;4.30;;;;;;;;;;110924;1241;35172;-36
2022/08/10 00:33:23;;;;;;;6.30;4.40;;;;;;;;;;110906;1245;34985;-36
2022/08/10 00:35:54;;;;;;;5.90;4.50;;;;;;;;;;110936;1247;34048;-36
2022/08/10 00:38:24;;;;;;;6.80;4.70;;;;;;;;;;110941;1249;32756;-36
2022/08/10 00:40:55;;;;;;;5.40;4.00;;;;;;;;;;110953;1243;35388;-36
2022/08/10 00:43:25;;;;;;;5.70;4.20;;;;;;;;;;110934;1244;33601;-36
2022/08/10 00:45:56;;;;;;;6.20;4.30;;;;;;;;;;110982;1241;34797;-36
2022/08/10 00:48:26;;;;;;;6.10;4.60;;;;;;;;;;110936;1249;35108;-36
2022/08/10 00:50:57;;;;;;;5.90;4.30;;;;;;;;;;110924;1249;35484;-36
2022/08/10 00:53:29;;;;;;;7.20;4.30;;;;;;;;;;110947;1243;35203;-36
2022/08/10 00:55:59;;;;;;;6.10;4.40;;;;;;;;;;110930;1244;35383;-36
2022/08/10 00:58:30;;;;;;;5.90;4.20;;;;;;;;;;110925;1242;35457;-36
2022/08/10 01:01:01;;;;;;;6.20;4.50;;;;;;;;;;110934;1249;35054;-36
2022/08/10 01:03:31;;;;;;;5.40;4.00;;;;;;;;;;110935;1250;35595;-36
2022/08/10 01:06:06;;;;;;;6.30;4.30;;;;;;;;;;110939;1244;35031;-36
2022/08/10 01:08:40;;;;;;;6.30;4.00;;;;;;;;;;110949;1248;34607;-36
2022/08/10 01:11:14;;;;;;;5.80;4.10;;;;;;;;;;110949;1241;35416;-35
2022/08/10 01:13:54;;;;;;;5.70;3.90;;;;;;;;;;110946;1249;34960;-36
2022/08/10 01:16:30;;;;;;;6.00;4.00;;;;;;;;;;110938;1247;34925;-36
2022/08/10 01:19:06;;;;;;;6.10;4.10;;;;;;;;;;110951;1244;34284;-36
2022/08/10 01:22:00;;;;;;;5.40;4.30;;;;;;;;;;110940;1250;35238;-36
2022/08/10 01:24:54;;;;;;;6.10;3.90;;;;;;;;;;110931;1249;35551;-36
2022/08/10 01:27:29;;;;;;;7.00;4.10;;;;;;;;;;110950;1249;35052;-36
2022/08/10 01:30:03;;;;;;;5.60;4.00;;;;;;;;;;110299;1250;854618;-36
2022/08/10 01:32:50;;;;;;;5.40;4.20;;;;;;;;;;110971;1241;32632;-36
2022/08/10 01:35:30;;;;;;;5.50;4.10;;;;;;;;;;110900;1250;34451;-36
2022/08/10 01:38:06;;;;;;;5.20;3.60;;;;;;;;;;110945;1242;34967;-36
2022/08/10 01:40:39;;;;;;;6.80;4.00;;;;;;;;;;110925;1250;34215;-36
2022/08/10 01:43:13;;;;;;;5.30;4.10;;;;;;;;;;110925;1249;34196;-36
2022/08/10 01:45:47;;;;;;;6.10;4.40;;;;;;;;;;110919;1250;33807;-36
2022/08/10 01:48:29;;;;;;;5.70;3.90;;;;;;;;;;110933;1241;33769;-36
2022/08/10 01:51:07;;;;;;;6.20;3.90;;;;;;;;;;110941;1241;33727;-36
2022/08/10 01:53:41;;;;;;;6.40;4.00;;;;;;;;;;110908;1242;33291;-36
2022/08/10 01:56:15;;;;;;;5.40;4.00;;;;;;;;;;110924;1248;33761;-35
2022/08/10 01:58:48;;;;;;;7.20;4.10;;;;;;;;;;110945;1249;33195;-35
2022/08/10 02:01:22;;;;;;;5.40;4.10;;;;;;;;;;110955;1241;33005;-35
2022/08/10 02:03:56;;;;;;;5.50;4.20;;;;;;;;;;110916;1242;33812;-35
2022/08/10 02:06:28;;;;;;;5.90;4.00;;;;;;;;;;110948;1248;33384;-35
2022/08/10 02:09:00;;;;;;;5.80;3.70;;;;;;;;;;110877;1244;33460;-35
2022/08/10 02:11:31;;;;;;;5.90;3.80;;;;;;;;;;110853;1244;33893;-35
2022/08/10 02:14:02;;;;;;;5.50;3.70;;;;;;;;;;110868;1243;33671;-35
2022/08/10 02:16:33;;;;;;;5.80;4.00;;;;;;;;;;110853;1244;33685;-36
2022/08/10 02:19:07;;;;;;;6.40;4.30;;;;;;;;;;110853;1249;33830;-35
2022/08/10 02:21:39;;;;;;;5.20;3.70;;;;;;;;;;110852;1249;35310;-35
2022/08/10 02:24:12;;;;;;;5.90;4.10;;;;;;;;;;110928;1241;33278;-34
2022/08/10 02:26:44;;;;;;;5.90;3.70;;;;;;;;;;110913;1241;33567;-34
2022/08/10 02:29:17;;;;;;;6.00;4.00;;;;;;;;;;110933;1241;33721;-35
2022/08/10 02:31:47;;;;;;;6.00;4.30;;;;;;;;;;110979;1244;35466;-34
2022/08/10 02:34:19;;;;;;;5.70;3.90;;;;;;;;;;110940;1249;35425;-35
2022/08/10 02:36:53;;;;;;;5.40;3.80;;;;;;;;;;110959;1241;35551;-34
2022/08/10 02:39:25;;;;;;;5.20;3.90;;;;;;;;;;110950;1244;33705;-34
2022/08/10 02:41:58;;;;;;;5.80;4.00;;;;;;;;;;110947;1241;35472;-34
2022/08/10 02:44:45;;;;;;;5.00;3.50;;;;;;;;;;110907;1241;33256;-35
2022/08/10 02:47:21;;;;;;;4.80;3.70;;;;;;;;;;110937;1249;33846;-35
2022/08/10 02:49:57;;;;;;;5.10;3.40;;;;;;;;;;110968;1249;33750;-34
2022/08/10 02:52:30;;;;;;;6.00;3.70;;;;;;;;;;110947;1241;33820;-35
2022/08/10 02:55:05;;;;;;;5.40;3.80;;;;;;;;;;110952;1249;33816;-35
2022/08/10 02:57:40;;;;;;;4.90;3.50;;;;;;;;;;110934;1248;35121;-35
2022/08/10 03:00:12;;;;;;;5.20;3.90;;;;;;;;;;110935;1241;33808;-34
2022/08/10 03:02:48;;;;;;;5.40;3.90;;;;;;;;;;110914;1242;33273;-35
2022/08/10 03:05:19;;;;;;;6.50;3.60;;;;;;;;;;110924;1241;34022;-34
2022/08/10 03:07:53;;;;;;;5.50;3.70;;;;;;;;;;110926;1241;33699;-34
2022/08/10 03:10:28;;;;;;;6.50;3.80;;;;;;;;;;110939;1247;33782;-35
2022/08/10 03:13:03;;;;;;;5.30;3.50;;;;;;;;;;110942;1249;32071;-34
2022/08/10 03:15:36;;;;;;;5.40;3.90;;;;;;;;;;110948;1250;33721;-34
2022/08/10 03:18:07;;;;;;;5.10;4.00;;;;;;;;;;110928;1250;34147;-34
2022/08/10 03:20:40;;;;;;;5.20;3.60;;;;;;;;;;110986;1241;33893;-35
2022/08/10 03:23:14;;;;;;;6.60;4.00;;;;;;;;;;110947;1249;33836;-34
2022/08/10 03:25:46;;;;;;;5.20;3.50;;;;;;;;;;110945;1242;34893;-35
2022/08/10 03:28:17;;;;;;;5.60;3.50;;;;;;;;;;110947;1241;35438;-34
2022/08/10 03:30:48;;;;;;;5.00;3.40;;;;;;;;;;110922;1244;33252;-35
2022/08/10 03:33:19;;;;;;;7.50;4.40;;;;;;;;;;110927;1248;35762;-35
2022/08/10 03:35:50;;;;;;;6.20;3.40;;;;;;;;;;110913;1249;34949;-34
2022/08/10 03:38:21;;;;;;;4.80;3.50;;;;;;;;;;110939;1241;34146;-34
2022/08/10 03:40:52;;;;;;;6.20;3.50;;;;;;;;;;110926;1241;33740;-34
2022/08/10 03:43:25;;;;;;;4.80;3.60;;;;;;;;;;110953;1244;33457;-35
2022/08/10 03:45:58;;;;;;;5.20;3.50;;;;;;;;;;110917;1241;33647;-35
2022/08/10 03:48:30;;;;;;;6.50;3.70;;;;;;;;;;110934;1244;33839;-34
2022/08/10 03:51:01;;;;;;;6.10;3.90;;;;;;;;;;110903;1241;33733;-34
2022/08/10 03:53:32;;;;;;;5.80;3.50;;;;;;;;;;110947;1244;35550;-34
2022/08/10 03:56:04;;;;;;;4.70;3.30;;;;;;;;;;110974;1242;33374;-34
2022/08/10 03:58:34;;;;;;;5.10;3.50;;;;;;;;;;110939;1241;33774;-35
2022/08/10 04:01:05;;;;;;;7.10;3.60;;;;;;;;;;110915;1241;33826;-34
2022/08/10 04:03:36;;;;;;;6.50;3.30;;;;;;;;;;110921;1249;34560;-35
2022/08/10 04:06:07;;;;;;;6.00;3.50;;;;;;;;;;110964;1250;33776;-35
2022/08/10 04:08:41;;;;;;;5.50;3.60;;;;;;;;;;110942;1249;33778;-35
2022/08/10 04:11:13;;;;;;;6.20;3.80;;;;;;;;;;110954;1248;33833;-35
2022/08/10 04:13:43;;;;;;;4.90;3.40;;;;;;;;;;110959;1249;34233;-34
2022/08/10 04:16:14;;;;;;;6.40;3.40;;;;;;;;;;110923;1249;33683;-34
2022/08/10 04:18:44;;;;;;;6.30;3.50;;;;;;;;;;110902;1244;33525;-35
2022/08/10 04:21:18;;;;;;;5.20;3.20;;;;;;;;;;110952;1249;33932;-34
2022/08/10 04:23:50;;;;;;;6.00;3.70;;;;;;;;;;110925;1244;33853;-34
2022/08/10 04:26:20;;;;;;;6.20;3.60;;;;;;;;;;110913;1249;35474;-34
2022/08/10 04:28:52;;;;;;;7.10;3.90;;;;;;;;;;110934;1241;33919;-34
2022/08/10 04:31:24;;;;;;;6.20;3.80;;;;;;;;;;110928;1249;35702;-35
2022/08/10 04:33:54;;;;;;;;;;;;;;;;;;110976;1241;34732;-34
2022/08/10 04:36:24;;;;;;;6.80;3.90;;;;;;;;;;110933;1249;33802;-35
2022/08/10 04:38:55;;;;;;;6.70;3.50;;;;;;;;;;110925;1249;33778;-34
2022/08/10 04:41:26;;;;;;;7.90;3.60;;;;;;;;;;110929;1249;34927;-34
2022/08/10 04:43:56;;;;;;;8.30;3.20;;;;;;;;;;110958;1242;33875;-34
2022/08/10 04:46:27;;;;;;;8.20;3.60;;;;;;;;;;110973;1248;35389;-34
2022/08/10 04:48:58;;;;;;;7.80;3.90;;;;;;;;;;110953;1242;35456;-35
2022/08/10 04:51:28;;;;;;;8.10;3.80;;;;;;;;;;110970;1247;33038;-34
2022/08/10 04:53:59;;;;;;;7.30;3.40;;;;;;;;;;110929;1242;34078;-35
2022/08/10 04:56:29;;;;;;;8.70;3.90;;;;;;;;;;110945;1242;34417;-35
2022/08/10 04:59:00;;;;;;;7.80;3.80;;;;;;;;;;110962;1242;33731;-35
2022/08/10 05:01:31;;;;;;;6.80;3.40;;;;;;;;;;110925;1248;33744;-34
2022/08/10 05:04:02;;;;;;;6.80;3.90;;;;;;;;;;110931;1249;34054;-35
2022/08/10 05:06:32;;;;;;;8.60;3.70;;;;;;;;;;110908;1248;35370;-35
2022/08/10 05:09:03;;;;;;;7.00;3.70;;;;;;;;;;110997;1241;33314;-35
2022/08/10 05:11:34;;;;;;;7.60;3.80;;;;;;;;;;110931;1248;33626;-34
2022/08/10 05:14:04;;;;;;;10.60;4.20;;;;;;;;;;110961;1242;33328;-34
2022/08/10 05:16:35;;;;;;;8.60;4.00;;;;;;;;;;110953;1249;33884;-34
2022/08/10 05:19:05;;;;;;;10.00;4.30;;;;;;;;;;110934;1241;33846;-34
2022/08/10 05:21:36;;;;;;;11.80;4.40;;;;;;;;;;110955;1241;33442;-34
2022/08/10 05:24:07;;;;;;;9.60;4.00;;;;;;;;;;110925;1244;33321;-34
2022/08/10 05:26:38;;;;;;;10.90;4.10;;;;;;;;;;110983;1241;33764;-35
2022/08/10 05:29:08;;;;;;;9.60;4.10;;;;;;;;;;110929;1244;33868;-35
2022/08/10 05:31:39;;;;;;;11.20;4.30;;;;;;;;;;110912;1249;34054;-34
2022/08/10 05:34:10;;;;;;;11.50;4.90;;;;;;;;;;110932;1249;35569;-34
2022/08/10 05:36:41;;;;;;;10.80;4.10;;;;;;;;;;110965;1241;33941;-35
2022/08/10 05:39:14;;;;;;;10.20;4.10;;;;;;;;;;110960;1241;33845;-34
2022/08/10 05:41:46;;;;;;;9.90;4.50;;;;;;;;;;110927;1244;33720;-35
2022/08/10 05:44:17;;;;;;;9.00;4.00;;;;;;;;;;110962;1244;33670;-35
2022/08/10 05:46:47;;;;;;;10.80;4.30;;;;;;;;;;110938;1247;33204;-34
2022/08/10 05:49:17;;;;;;;11.60;4.10;;;;;;;;;;110983;1249;33831;-34
2022/08/10 05:51:50;;;;;;;12.70;4.30;;;;;;;;;;110977;1241;33829;-35
2022/08/10 05:54:20;;;;;;;10.40;4.30;;;;;;;;;;110923;1249;33907;-35
2022/08/10 05:56:51;;;;;;;15.90;4.30;;;;;;;;;;110966;1241;33780;-34
2022/08/10 05:59:23;;;;;;;12.60;4.80;;;;;;;;;;110914;1250;33923;-35
2022/08/10 06:01:54;;;;;;;12.70;4.40;;;;;;;;;;110939;1241;33725;-35
2022/08/10 06:04:29;;;;;;;13.40;4.70;;;;;;;;;;110941;1248;33840;-34
2022/08/10 06:07:01;;;;;;;13.90;4.30;;;;;;;;;;110910;1242;33740;-35
2022/08/10 06:09:35;;;;;;;11.60;4.60;;;;;;;;;;110930;1241;35500;-34
2022/08/10 06:12:07;;;;;;;11.00;4.40;;;;;;;;;;110974;1241;35420;-35
2022/08/10 06:17:28;;;;;;;15.00;5.00;;;;;;;;;;110953;1249;33333;-35
2022/08/10 06:20:00;;;;;;;13.00;4.80;;;;;;;;;;110934;1248;33765;-35
2022/08/10 06:22:31;;;;;;;10.80;4.00;;;;;;;;;;110939;1244;34578;-34
2022/08/10 06:25:03;;;;;;;12.30;4.30;;;;;;;;;;110918;1249;34797;-34
2022/08/10 06:27:34;;;;;;;14.80;3.80;;;;;;;;;;110973;1241;33352;-35
2022/08/10 06:30:06;;;;;;;10.90;3.80;;;;;;;;;;110931;1249;33830;-34
2022/08/10 06:32:37;;;;;;;10.50;3.60;;;;;;;;;;110938;1249;33885;-34
2022/08/10 06:35:10;;;;;;;9.60;4.00;;;;;;;;;;110941;1249;35345;-34
2022/08/10 06:37:42;;;;;;;9.90;4.10;;;;;;;;;;110950;1240;33753;-35
2022/08/10 06:40:14;;;;;;;10.40;4.10;;;;;;;;;;110939;1248;33768;-34
2022/08/10 06:42:48;;;;;;;8.90;3.90;;;;;;;;;;110958;1249;33450;-35
2022/08/10 06:45:21;;;;;;;10.90;4.00;;;;;;;;;;110925;1241;35402;-34
2022/08/10 06:47:51;;;;;;;;;;;;;;;;;;110939;1244;33739;-34
2022/08/10 06:50:24;;;;;;;9.00;3.70;;;;;;;;;;110925;1244;33356;-34
2022/08/10 06:52:59;;;;;;;8.40;3.70;;;;;;;;;;110913;1241;33779;-35
2022/08/10 06:55:31;;;;;;;7.30;3.10;;;;;;;;;;110886;1244;33888;-35
2022/08/10 06:58:03;;;;;;;7.80;3.50;;;;;;;;;;110902;1249;33820;-34
2022/08/10 07:00:37;;;;;;;9.40;3.50;;;;;;;;;;110913;1250;33733;-34
2022/08/10 07:03:09;;;;;;;7.10;3.30;;;;;;;;;;110907;1244;33743;-34
2022/08/10 07:05:46;;;;;;;9.60;3.60;;;;;;;;;;110937;1241;33863;-34
2022/08/10 07:08:17;;;;;;;9.20;4.80;;;;;;;;;;110935;1241;33269;-35
2022/08/10 07:10:49;;;;;;;11.80;4.60;;;;;;;;;;110910;1249;34246;-34
2022/08/10 07:13:20;;;;;;;12.60;4.40;;;;;;;;;;110941;1244;33225;-35
2022/08/10 07:15:51;;;;;;;12.30;5.00;;;;;;;;;;110885;1249;34131;-34
2022/08/10 07:18:22;;;;;;;10.30;5.00;;;;;;;;;;110916;1248;35381;-34
2022/08/10 07:20:53;;;;;;;9.60;4.60;;;;;;;;;;110920;1248;33859;-34
2022/08/10 07:23:25;;;;;;;8.70;3.80;;;;;;;;;;110839;1243;33029;-33
2022/08/10 07:25:57;;;;;;;7.00;3.80;;;;;;;;;;110890;1247;33710;-33
2022/08/10 07:28:28;;;;;;;7.80;3.60;;;;;;;;;;110904;1248;34183;-33
2022/08/10 07:30:59;;;;;;;8.70;3.60;;;;;;;;;;110890;1241;33403;-34
2022/08/10 07:33:31;;;;;;;6.90;3.30;;;;;;;;;;110931;1241;33688;-35
2022/08/10 07:36:02;;;;;;;7.80;4.00;;;;;;;;;;110902;1248;33821;-34
2022/08/10 07:38:33;;;;;;;8.00;3.40;;;;;;;;;;110904;1241;35359;-34
2022/08/10 07:41:05;;;;;;;7.20;3.50;;;;;;;;;;110925;1242;33339;-33
2022/08/10 07:43:38;;;;;;;7.80;3.30;;;;;;;;;;110941;1244;33279;-34
2022/08/10 07:46:12;;;;;;;6.70;3.60;;;;;;;;;;110920;1244;33702;-34
2022/08/10 07:48:45;;;;;;;6.30;3.50;;;;;;;;;;110907;1249;33584;-34
2022/08/10 07:51:18;;;;;;;7.30;3.00;;;;;;;;;;110848;1241;33650;-34
2022/08/10 07:53:52;;;;;;;5.00;2.90;;;;;;;;;;110921;1249;32610;-33
2022/08/10 07:56:25;;;;;;;5.40;3.10;;;;;;;;;;110932;1241;33721;-34
2022/08/10 07:59:01;;;;;;;6.20;3.10;;;;;;;;;;110904;1244;33759;-34
2022/08/10 08:01:35;;;;;;;6.40;3.10;;;;;;;;;;110917;1241;33800;-34
2022/08/10 08:04:07;;;;;;;5.10;2.60;;;;;;;;;;110874;1249;33731;-34
2022/08/10 08:06:38;;;;;;;5.50;2.70;;;;;;;;;;110922;1241;33845;-34
2022/08/10 08:09:10;;;;;;;8.20;3.40;;;;;;;;;;110849;1244;33676;-34
2022/08/10 08:11:43;;;;;;;7.50;3.10;;;;;;;;;;110872;1248;33252;-34
2022/08/10 08:14:15;;;;;;;6.20;2.90;;;;;;;;;;110870;1249;32459;-34
2022/08/10 08:16:50;;;;;;;8.20;3.30;;;;;;;;;;110937;1243;33217;-34
2022/08/10 08:19:21;;;;;;;7.60;3.10;;;;;;;;;;110892;1242;33753;-34
2022/08/10 08:21:52;;;;;;;4.90;2.60;;;;;;;;;;110913;1242;34458;-34
2022/08/10 08:24:24;;;;;;;8.60;3.20;;;;;;;;;;110961;1243;33732;-35
2022/08/10 08:26:55;;;;;;;7.80;3.60;;;;;;;;;;110914;1247;34228;-33
2022/08/10 08:29:26;;;;;;;9.00;3.50;;;;;;;;;;110889;1242;33657;-36
2022/08/10 08:31:57;;;;;;;7.60;3.50;;;;;;;;;;110861;1249;33867;-33
2022/08/10 08:34:28;;;;;;;7.30;3.10;;;;;;;;;;110867;1248;33270;-36
2022/08/10 08:37:00;;;;;;;7.80;3.60;;;;;;;;;;110935;1249;33845;-35
2022/08/10 08:39:31;;;;;;;7.90;3.20;;;;;;;;;;110954;1249;33249;-34
2022/08/10 08:42:25;;;;;;;7.10;3.40;;;;;;;;;;110947;1249;35506;-33
2022/08/10 08:45:13;;;;;;;9.00;3.20;;;;;;;;;;110934;1242;33759;-34
2022/08/10 08:48:25;;;;;;;6.70;2.80;;;;;;;;;;110946;1241;33367;-34
2022/08/10 08:51:08;;;;;;;6.90;2.70;;;;;;;;;;110558;1254;33697;-34
2022/08/10 08:53:50;;;;;;;6.50;3.30;;;;;;;;;;110543;1254;35372;-34
2022/08/10 08:56:27;;;;;;;7.40;2.90;;;;;;;;;;110786;1242;34393;-33
2022/08/10 08:59:08;;;;;;;8.20;3.00;;;;;;;;;;110929;1242;33255;-34
2022/08/10 09:01:48;;;;;;;6.70;2.80;;;;;;;;;;110941;1241;33788;-34
2022/08/10 09:04:28;;;;;;;7.20;3.70;;;;;;;;;;110941;1244;33697;-35
2022/08/10 09:07:15;;;;;;;7.70;3.00;;;;;;;;;;110909;1250;33744;-34
2022/08/10 09:10:03;;;;;;;5.00;2.50;;;;;;;;;;110888;1243;33233;-35
2022/08/10 09:12:43;;;;;;;7.60;2.90;;;;;;;;;;110933;1241;34935;-34
2022/08/10 09:15:20;;;;;;;6.60;2.70;;;;;;;;;;110940;1243;34019;-35
2022/08/10 09:17:58;;;;;;;5.80;2.60;;;;;;;;;;110922;1243;33755;-35
2022/08/10 09:20:34;;;;;;;5.10;2.40;;;;;;;;;;110905;1241;35449;-33
2022/08/10 09:23:13;;;;;;;7.10;2.60;;;;;;;;;;110955;1242;33727;-33
2022/08/10 09:25:52;;;;;;;7.10;2.40;;;;;;;;;;110944;1249;32982;-36
2022/08/10 09:28:30;;;;;;;5.80;2.70;;;;;;;;;;110969;1249;33735;-33
2022/08/10 09:31:03;;;;;;;5.10;2.40;;;;;;;;;;110618;1243;414092;-33
2022/08/10 09:33:44;;;;;;;7.10;2.30;;;;;;;;;;110911;1242;33772;-34
2022/08/10 09:36:26;;;;;;;5.80;2.60;;;;;;;;;;110947;1250;34148;-34
2022/08/10 09:39:05;;;;;;;5.10;2.30;;;;;;;;;;110932;1244;33909;-34
2022/08/10 09:41:40;;;;;;;6.40;2.40;;;;;;;;;;110940;1241;33268;-34
2022/08/10 09:44:21;;;;;;;4.80;2.50;;;;;;;;;;110902;1249;33936;-34
2022/08/10 09:47:06;;;;;;;4.60;2.10;;;;;;;;;;110937;1241;33836;-34
2022/08/10 09:49:40;;;;;;;4.20;2.20;;;;;;;;;;110948;1250;33770;-34
2022/08/10 09:52:17;;;;;;;6.30;2.40;;;;;;;;;;110956;1242;35439;-34
2022/08/10 09:55:00;;;;;;;6.20;2.10;;;;;;;;;;110923;1248;35269;-34
2022/08/10 09:57:34;;;;;;;4.10;2.40;;;;;;;;;;110954;1244;33249;-34
2022/08/10 10:00:09;;;;;;;6.10;2.20;;;;;;;;;;110918;1242;33786;-34
2022/08/10 10:02:51;;;;;;;4.60;1.70;;;;;;;;;;110940;1241;33338;-34
2022/08/10 10:05:33;;;;;;;4.70;2.70;;;;;;;;;;110970;1243;33891;-34
2022/08/10 10:08:10;;;;;;;5.00;2.10;;;;;;;;;;110917;1248;33224;-34
2022/08/10 10:10:48;;;;;;;4.70;2.00;;;;;;;;;;110887;1244;33733;-34
2022/08/10 10:13:27;;;;;;;5.30;1.90;;;;;;;;;;110963;1249;33708;-34
2022/08/10 10:16:16;;;;;;;4.40;2.10;;;;;;;;;;110923;1249;33763;-34
2022/08/10 10:18:48;;;;;;;4.20;2.00;;;;;;;;;;110931;1249;33580;-34
2022/08/10 10:21:25;;;;;;;4.60;2.10;;;;;;;;;;110917;1241;35372;-34
2022/08/10 10:24:04;;;;;;;5.40;1.70;;;;;;;;;;110900;1244;34183;-34
2022/08/10 10:26:42;;;;;;;4.20;2.00;;;;;;;;;;110928;1249;33810;-34
2022/08/10 10:29:23;;;;;;;4.50;1.80;;;;;;;;;;110921;1249;34691;-34
2022/08/10 10:31:57;;;;;;;4.60;1.80;;;;;;;;;;110935;1242;33916;-34
2022/08/10 10:34:35;;;;;;;4.60;1.90;;;;;;;;;;110984;1242;33893;-34
2022/08/10 10:37:07;;;;;;;3.90;2.20;;;;;;;;;;110922;1245;35435;-34
2022/08/10 10:39:42;;;;;;;4.00;1.90;;;;;;;;;;110955;1241;33806;-34
2022/08/10 10:42:23;;;;;;;3.60;1.80;;;;;;;;;;110938;1248;34198;-34
2022/08/10 10:45:05;;;;;;;3.50;1.70;;;;;;;;;;110963;1241;33772;-34
2022/08/10 10:47:51;;;;;;;3.40;1.60;;;;;;;;;;110961;1248;34036;-34
2022/08/10 10:50:27;;;;;;;4.80;2.10;;;;;;;;;;110961;1248;33749;-34
2022/08/10 10:53:09;;;;;;;5.00;2.00;;;;;;;;;;110943;1241;33693;-34
2022/08/10 10:55:47;;;;;;;4.00;1.90;;;;;;;;;;110934;1241;33695;-34
2022/08/10 10:58:24;;;;;;;4.80;1.80;;;;;;;;;;110953;1241;33344;-34
2022/08/10 11:01:01;;;;;;;3.70;1.90;;;;;;;;;;111002;1241;33853;-34
2022/08/10 11:03:52;;;;;;;5.30;1.90;;;;;;;;;;110962;1246;35371;-34
2022/08/10 11:06:33;;;;;;;3.70;1.70;;;;;;;;;;110954;1248;34022;-33
2022/08/10 11:09:09;;;;;;;3.50;1.80;;;;;;;;;;110934;1241;33977;-34
2022/08/10 11:11:43;;;;;;;3.30;1.90;;;;;;;;;;110931;1248;33287;-33
2022/08/10 11:14:18;;;;;;;5.50;2.00;;;;;;;;;;110909;1244;34013;-36
2022/08/10 11:16:51;;;;;;;3.90;1.70;;;;;;;;;;110948;1241;33765;-34
2022/08/10 11:19:28;;;;;;;6.20;1.60;;;;;;;;;;110983;1248;33794;-33
2022/08/10 11:22:12;;;;;;;3.80;1.80;;;;;;;;;;111008;1248;33267;-33
2022/08/10 11:24:52;;;;;;;4.10;1.80;;;;;;;;;;110940;1248;33724;-33
2022/08/10 11:27:32;;;;;;;4.30;1.80;;;;;;;;;;111056;1242;33739;-32
2022/08/10 11:30:06;;;;;;;3.70;1.90;;;;;;;;;;111061;1248;33274;-31
2022/08/10 11:32:51;;;;;;;4.00;1.80;;;;;;;;;;110883;1244;35297;-32
2022/08/10 11:35:26;;;;;;;4.00;1.70;;;;;;;;;;110906;1242;33379;-32
2022/08/10 11:38:03;;;;;;;3.80;1.80;;;;;;;;;;110943;1242;33745;-32
2022/08/10 11:40:43;;;;;;;4.30;1.80;;;;;;;;;;110913;1242;33798;-33
2022/08/10 11:43:20;;;;;;;4.40;2.00;;;;;;;;;;110939;1241;35424;-33
2022/08/10 11:45:56;;;;;;;4.50;1.70;;;;;;;;;;110956;1248;33861;-33
2022/08/10 11:48:37;;;;;;;3.90;1.80;;;;;;;;;;110922;1241;33948;-33
2022/08/10 11:51:14;;;;;;;3.60;1.70;;;;;;;;;;110969;1241;34214;-33
2022/08/10 11:53:49;;;;;;;4.30;1.60;;;;;;;;;;110940;1241;33800;-33
2022/08/10 11:56:27;;;;;;;4.70;2.00;;;;;;;;;;110937;1241;33700;-33
2022/08/10 12:01:49;;;;;;;4.00;1.90;;;;;;;;;;110938;1242;34144;-32
2022/08/10 12:04:22;;;;;;;3.20;1.70;;;;;;;;;;110925;1248;35579;-32
2022/08/10 12:06:53;;;;;;;3.50;1.70;;;;;;;;;;110973;1240;33243;-33
2022/08/10 12:09:24;;;;;;;3.80;1.70;;;;;;;;;;110971;1242;35411;-35
2022/08/10 12:11:56;;;;;;;3.70;1.60;;;;;;;;;;110952;1242;34654;-34
2022/08/10 12:14:30;;;;;;;3.60;1.90;;;;;;;;;;110974;1241;33971;-34
2022/08/10 12:17:04;;;;;;;3.30;1.60;;;;;;;;;;110967;1248;33909;-35
2022/08/10 12:19:42;;;;;;;4.60;1.90;;;;;;;;;;110975;1247;35581;-35
2022/08/10 12:22:16;;;;;;;3.30;1.60;;;;;;;;;;110953;1248;34008;-33
2022/08/10 12:24:51;;;;;;;3.60;1.70;;;;;;;;;;110942;1241;34166;-33
2022/08/10 12:27:30;;;;;;;4.60;1.60;;;;;;;;;;110938;1241;33682;-33
2022/08/10 12:30:05;;;;;;;4.40;1.60;;;;;;;;;;110930;1241;33832;-34
2022/08/10 12:32:48;;;;;;;3.60;1.80;;;;;;;;;;110933;1248;33781;-32
2022/08/10 12:35:23;;;;;;;4.90;1.90;;;;;;;;;;110925;1247;34131;-34
2022/08/10 12:38:03;;;;;;;3.90;1.80;;;;;;;;;;110932;1244;34209;-34
2022/08/10 12:40:37;;;;;;;4.00;1.70;;;;;;;;;;110974;1248;34897;-34
2022/08/10 12:43:11;;;;;;;3.90;1.70;;;;;;;;;;110961;1244;33669;-34
2022/08/10 12:45:49;;;;;;;6.40;1.60;;;;;;;;;;110965;1242;33912;-34
2022/08/10 12:48:24;;;;;;;4.50;2.20;;;;;;;;;;110925;1244;33400;-34
2022/08/10 12:51:00;;;;;;;3.50;1.60;;;;;;;;;;110954;1250;33714;-33
2022/08/10 12:53:43;;;;;;;4.30;1.70;;;;;;;;;;110943;1247;33905;-34
2022/08/10 12:56:13;;;;;;;;;;;;;;;;;;110945;1249;34092;-33
2022/08/10 12:58:44;;;;;;;4.20;2.10;;;;;;;;;;110894;1241;34159;-34
2022/08/10 13:01:16;;;;;;;5.00;1.50;;;;;;;;;;110942;1242;33756;-34
2022/08/10 13:03:50;;;;;;;3.90;1.90;;;;;;;;;;110909;1247;34256;-34
2022/08/10 13:06:22;;;;;;;3.60;1.60;;;;;;;;;;110927;1244;34083;-34
2022/08/10 13:09:11;;;;;;;4.40;1.50;;;;;;;;;;110944;1244;34099;-34
2022/08/10 13:11:46;;;;;;;3.60;1.60;;;;;;;;;;110928;1246;34642;-34
2022/08/10 13:14:21;;;;;;;3.10;1.40;;;;;;;;;;110927;1241;33266;-34
2022/08/10 13:16:56;;;;;;;5.30;1.50;;;;;;;;;;110897;1242;33782;-34
2022/08/10 13:19:29;;;;;;;4.80;1.50;;;;;;;;;;110924;1249;34196;-34
2022/08/10 13:22:01;;;;;;;3.80;1.60;;;;;;;;;;110902;1250;34038;-34
2022/08/10 13:24:34;;;;;;;3.00;1.20;;;;;;;;;;110927;1244;34492;-34
2022/08/10 13:27:10;;;;;;;3.20;1.60;;;;;;;;;;110893;1243;33271;-34
2022/08/10 13:29:44;;;;;;;3.50;1.70;;;;;;;;;;110881;1245;33825;-33
2022/08/10 13:32:19;;;;;;;3.30;1.40;;;;;;;;;;110949;1249;35714;-33
2022/08/10 13:34:51;;;;;;;6.10;1.80;;;;;;;;;;110908;1250;34477;-33
2022/08/10 13:37:25;;;;;;;3.10;1.40;;;;;;;;;;110933;1242;33697;-33
2022/08/10 13:40:01;;;;;;;3.10;1.40;;;;;;;;;;110923;1248;35512;-33
2022/08/10 13:42:36;;;;;;;3.50;1.40;;;;;;;;;;110899;1250;35819;-33
2022/08/10 13:45:10;;;;;;;3.30;1.40;;;;;;;;;;110926;1250;34035;-33
2022/08/10 13:47:42;;;;;;;3.90;1.50;;;;;;;;;;110931;1241;33743;-33
2022/08/10 13:50:20;;;;;;;3.20;1.50;;;;;;;;;;110907;1244;33765;-34
2022/08/10 13:52:55;;;;;;;2.40;1.10;;;;;;;;;;110921;1249;33562;-33
2022/08/10 13:55:28;;;;;;;3.70;1.40;;;;;;;;;;110937;1244;33730;-33
2022/08/10 13:58:02;;;;;;;4.50;1.50;;;;;;;;;;110923;1250;33414;-33
2022/08/10 14:00:35;;;;;;;3.30;1.50;;;;;;;;;;110944;1248;33720;-34
2022/08/10 14:03:10;;;;;;;3.90;1.30;;;;;;;;;;110914;1246;34153;-34
2022/08/10 14:05:44;;;;;;;3.70;1.70;;;;;;;;;;110904;1241;36777;-34
2022/08/10 14:08:18;;;;;;;5.10;1.80;;;;;;;;;;110924;1249;33275;-34
2022/08/10 14:10:51;;;;;;;4.30;1.50;;;;;;;;;;110949;1250;33662;-34
2022/08/10 14:13:25;;;;;;;6.00;1.40;;;;;;;;;;110905;1250;34455;-33
2022/08/10 14:16:04;;;;;;;4.60;1.50;;;;;;;;;;110886;1245;35665;-34
2022/08/10 14:18:37;;;;;;;3.90;1.70;;;;;;;;;;110938;1247;33288;-33
2022/08/10 14:21:09;;;;;;;4.40;1.50;;;;;;;;;;110947;1248;34046;-34
2022/08/10 14:23:42;;;;;;;6.10;1.70;;;;;;;;;;110906;1241;34015;-33
2022/08/10 14:26:15;;;;;;;6.00;1.70;;;;;;;;;;110928;1242;34474;-33
2022/08/10 14:28:50;;;;;;;5.10;1.70;;;;;;;;;;110946;1242;33790;-34
2022/08/10 14:31:23;;;;;;;4.00;1.40;;;;;;;;;;110932;1247;33537;-34
2022/08/10 14:33:57;;;;;;;3.40;1.40;;;;;;;;;;110911;1244;33693;-33
2022/08/10 14:36:31;;;;;;;3.60;1.50;;;;;;;;;;110935;1251;34360;-34
2022/08/10 14:39:03;;;;;;;5.00;1.60;;;;;;;;;;110920;1248;33817;-33
2022/08/10 14:41:35;;;;;;;5.30;1.50;;;;;;;;;;110913;1250;33637;-33
2022/08/10 14:44:11;;;;;;;4.00;1.70;;;;;;;;;;110917;1242;33602;-33
2022/08/10 14:46:45;;;;;;;4.10;1.60;;;;;;;;;;110917;1250;34025;-33
2022/08/10 14:49:16;;;;;;;3.80;1.70;;;;;;;;;;110915;1250;33794;-33
2022/08/10 14:51:48;;;;;;;4.10;1.50;;;;;;;;;;110945;1244;33729;-33
2022/08/10 14:54:19;;;;;;;5.50;1.50;;;;;;;;;;110909;1242;33335;-33
2022/08/10 14:56:52;;;;;;;4.40;1.80;;;;;;;;;;110908;1250;34012;-33
2022/08/10 14:59:26;;;;;;;4.40;1.70;;;;;;;;;;110905;1247;34607;-33
2022/08/10 15:02:03;;;;;;;3.90;1.60;;;;;;;;;;110943;1241;34009;-34
2022/08/10 15:04:37;;;;;;;4.80;1.80;;;;;;;;;;110930;1241;33999;-33
2022/08/10 15:07:11;;;;;;;4.40;1.70;;;;;;;;;;110907;1250;33313;-33
2022/08/10 15:09:45;;;;;;;5.40;1.90;;;;;;;;;;110920;1247;34140;-33
2022/08/10 15:12:16;;;;;;;3.80;1.70;;;;;;;;;;110948;1250;33782;-33
2022/08/10 15:14:48;;;;;;;3.50;1.60;;;;;;;;;;110940;1249;34028;-33
2022/08/10 15:17:26;;;;;;;5.20;1.90;;;;;;;;;;110929;1244;33705;-33